Time;durP1;ratioP1;P1;durP2;ratioP2;P2;SDS_P1;SDS_P2;PMS_P1;PMS_P2;Temp;Humidity;BMP_temperature;BMP_pressure;BME280_temperature;BME280_humidity;BME280_pressure;Samples;Min_cycle;Max_cycle;Signal;HPM_P1;HPM_P2
2023/02/11 00:02:22;;;;;;;14.23;7.90;;;-2.10;99.90;;;;;;5109399;27;20581;-72
2023/02/11 00:04:49;;;;;;;13.95;9.18;;;-2.10;99.90;;;;;;5109757;28;20223;-71
2023/02/11 00:07:16;;;;;;;17.70;8.95;;;-2.20;99.90;;;;;;5109360;28;20230;-70
2023/02/11 00:09:43;;;;;;;16.60;9.35;;;-2.20;99.90;;;;;;5109466;28;20255;-70
2023/02/11 00:12:11;;;;;;;14.90;9.50;;;-2.20;99.90;;;;;;5109220;28;20297;-69
2023/02/11 00:14:37;;;;;;;18.67;10.68;;;-2.20;99.90;;;;;;5108613;28;20704;-71
2023/02/11 00:17:04;;;;;;;23.17;10.30;;;-2.10;99.90;;;;;;5108417;28;20219;-71
2023/02/11 00:19:31;;;;;;;19.05;10.50;;;-2.20;99.90;;;;;;5108262;28;20199;-71
2023/02/11 00:21:57;;;;;;;19.85;9.68;;;-2.20;99.90;;;;;;5108069;28;20264;-70
2023/02/11 00:24:24;;;;;;;13.95;8.70;;;-2.20;99.90;;;;;;5108434;28;20863;-71
2023/02/11 00:26:51;;;;;;;15.57;8.88;;;-2.20;99.90;;;;;;5108475;28;20231;-71
2023/02/11 00:29:19;;;;;;;12.25;8.93;;;-2.20;99.90;;;;;;5108711;27;20206;-71
2023/02/11 00:31:45;;;;;;;17.40;9.05;;;-2.20;99.90;;;;;;5107149;28;20203;-71
2023/02/11 00:34:12;;;;;;;13.65;10.32;;;-2.30;99.90;;;;;;5108811;28;20199;-69
2023/02/11 00:36:39;;;;;;;16.25;9.07;;;-2.30;99.90;;;;;;5108145;28;20218;-70
2023/02/11 00:39:06;;;;;;;20.20;10.50;;;-2.40;99.90;;;;;;5108721;28;20211;-70
2023/02/11 00:41:34;;;;;;;17.50;9.27;;;-2.40;99.90;;;;;;5108156;28;20256;-68
2023/02/11 00:44:00;;;;;;;20.55;10.10;;;-2.40;99.90;;;;;;5111919;28;20210;-72
2023/02/11 00:46:29;;;;;;;16.80;10.57;;;-2.40;99.90;;;;;;5112896;28;20218;-69
2023/02/11 00:48:56;;;;;;;13.10;9.13;;;-2.50;99.90;;;;;;5113582;28;20202;-70
2023/02/11 00:51:23;;;;;;;17.27;9.75;;;-2.50;99.90;;;;;;5112617;28;20195;-70
2023/02/11 00:53:50;;;;;;;16.30;9.90;;;-2.40;99.90;;;;;;5112831;28;20205;-70
2023/02/11 00:56:16;;;;;;;16.17;8.75;;;-2.40;99.90;;;;;;5112369;28;20219;-70
2023/02/11 00:58:43;;;;;;;13.68;8.70;;;-2.40;99.90;;;;;;5112861;27;20206;-71
2023/02/11 01:01:11;;;;;;;17.90;8.80;;;-2.40;99.90;;;;;;5112669;27;20199;-70
2023/02/11 01:03:40;;;;;;;20.27;9.40;;;-2.50;99.90;;;;;;5112482;28;20201;-70
2023/02/11 01:06:09;;;;;;;20.38;10.07;;;-2.50;99.90;;;;;;5112699;28;20703;-71
2023/02/11 01:08:36;;;;;;;20.30;9.02;;;-2.50;99.90;;;;;;5111761;28;20259;-70
2023/02/11 01:11:05;;;;;;;19.15;9.15;;;-2.50;99.90;;;;;;5112299;28;20202;-71
2023/02/11 01:13:35;;;;;;;17.52;8.70;;;-2.50;99.90;;;;;;5112113;28;20248;-70
2023/02/11 01:16:02;;;;;;;19.20;8.27;;;-2.50;99.90;;;;;;5112480;28;20215;-71
2023/02/11 01:18:29;;;;;;;11.73;9.25;;;-2.50;99.90;;;;;;5112339;27;20199;-70
2023/02/11 01:20:57;;;;;;;17.52;10.30;;;-2.60;99.90;;;;;;5111757;28;20203;-70
2023/02/11 01:23:24;;;;;;;20.83;10.70;;;-2.60;99.90;;;;;;5111814;28;20260;-70
2023/02/11 01:25:51;;;;;;;15.50;8.25;;;-2.70;99.90;;;;;;5111964;28;20227;-70
2023/02/11 01:28:18;;;;;;;15.15;9.07;;;-2.70;99.90;;;;;;5112831;28;20617;-70
2023/02/11 01:30:45;;;;;;;16.67;9.32;;;-2.70;99.90;;;;;;5113075;27;20674;-71
2023/02/11 01:33:12;;;;;;;24.73;9.48;;;-2.70;99.90;;;;;;5112850;28;20203;-70
2023/02/11 01:35:39;;;;;;;16.10;8.07;;;-2.70;99.90;;;;;;5113213;28;20222;-72
2023/02/11 01:38:08;;;;;;;18.27;9.48;;;-2.70;99.90;;;;;;5113285;28;20209;-71
2023/02/11 01:40:34;;;;;;;17.58;9.68;;;-2.70;99.90;;;;;;5112739;28;20203;-70
2023/02/11 01:43:01;;;;;;;16.75;10.40;;;-2.70;99.90;;;;;;5112640;28;20685;-71
2023/02/11 01:45:55;;;;;;;17.50;9.60;;;-2.80;99.90;;;;;;5112703;28;20230;-70
2023/02/11 01:48:27;;;;;;;15.07;8.00;;;-2.80;99.90;;;;;;5113047;28;20620;-70
2023/02/11 01:50:59;;;;;;;17.17;10.48;;;-2.80;99.90;;;;;;5112745;28;20195;-70
2023/02/11 01:59:11;;;;;;;16.27;9.80;;;-2.80;99.90;;;;;;5112685;28;20648;-71
2023/02/11 02:01:41;;;;;;;19.80;8.90;;;-2.90;99.90;;;;;;5112205;28;20209;-70
2023/02/11 02:04:09;;;;;;;12.70;8.20;;;-2.90;99.90;;;;;;5112458;28;20203;-71
2023/02/11 02:06:40;;;;;;;15.73;9.25;;;-2.90;99.90;;;;;;5111651;28;20250;-70
2023/02/11 02:09:11;;;;;;;15.93;7.97;;;-2.90;99.90;;;;;;5112369;28;20198;-70
2023/02/11 02:11:37;;;;;;;18.38;9.35;;;-2.80;99.90;;;;;;5112063;28;20206;-71
2023/02/11 02:14:04;;;;;;;17.35;8.98;;;-2.90;99.90;;;;;;5112227;28;20281;-70
2023/02/11 02:16:34;;;;;;;15.65;9.15;;;-2.90;99.90;;;;;;5112326;28;20272;-69
2023/02/11 02:19:24;;;;;;;14.25;7.40;;;-2.90;99.90;;;;;;5112296;28;20248;-71
2023/02/11 02:22:42;;;;;;;12.80;8.02;;;-2.90;99.90;;;;;;5111674;28;20218;-70
2023/02/11 02:25:27;;;;;;;17.23;9.57;;;-2.90;99.90;;;;;;5111950;28;20203;-70
2023/02/11 02:28:07;;;;;;;11.55;7.43;;;-2.90;99.90;;;;;;5112045;28;20227;-70
2023/02/11 02:30:54;;;;;;;13.07;7.10;;;-2.90;99.90;;;;;;5111833;28;20685;-71
2023/02/11 02:33:31;;;;;;;13.43;7.90;;;-2.90;99.90;;;;;;5111466;28;20550;-71
2023/02/11 02:36:12;;;;;;;18.83;9.02;;;-2.90;99.90;;;;;;5111590;28;20695;-70
2023/02/11 02:38:46;;;;;;;17.92;8.32;;;-2.90;99.90;;;;;;5111868;28;20252;-71
2023/02/11 02:41:15;;;;;;;13.00;8.43;;;-2.90;99.90;;;;;;5111144;28;20214;-70
2023/02/11 02:43:45;;;;;;;15.55;8.57;;;-2.90;99.90;;;;;;5111341;28;20666;-71
2023/02/11 02:46:14;;;;;;;13.35;8.65;;;-2.90;99.90;;;;;;5111358;28;20694;-71
2023/02/11 02:48:43;;;;;;;16.98;9.82;;;-2.90;99.90;;;;;;5112043;28;20203;-70
2023/02/11 02:51:25;;;;;;;20.50;8.32;;;-2.90;99.90;;;;;;5111473;28;20221;-71
2023/02/11 02:54:04;;;;;;;18.70;8.43;;;-2.90;99.90;;;;;;5111621;28;20202;-70
2023/02/11 02:56:39;;;;;;;18.35;8.75;;;-2.80;99.90;;;;;;5111479;28;20214;-70
2023/02/11 02:59:22;;;;;;;12.30;8.23;;;-2.80;99.90;;;;;;5111768;28;20203;-71
2023/02/11 03:01:57;;;;;;;14.05;8.88;;;-2.80;99.90;;;;;;5111457;28;20244;-70
2023/02/11 03:04:30;;;;;;;15.50;9.00;;;-2.80;99.90;;;;;;5111989;28;20203;-70
2023/02/11 03:07:03;;;;;;;14.75;8.60;;;-2.70;99.90;;;;;;5111573;28;20222;-70
2023/02/11 03:09:34;;;;;;;20.70;9.25;;;-2.70;99.90;;;;;;5111687;28;20206;-70
2023/02/11 03:12:02;;;;;;;13.27;7.13;;;-2.70;99.90;;;;;;5110818;28;20203;-70
2023/02/11 03:14:32;;;;;;;13.52;8.10;;;-2.80;99.90;;;;;;5111457;28;20241;-70
2023/02/11 03:17:01;;;;;;;19.80;9.88;;;-2.80;99.90;;;;;;5111261;28;20268;-71
2023/02/11 03:19:33;;;;;;;13.93;7.47;;;-2.80;99.90;;;;;;5111174;28;20574;-70
2023/02/11 03:22:02;;;;;;;12.95;8.75;;;-2.80;99.90;;;;;;5110549;28;20568;-70
2023/02/11 03:24:32;;;;;;;15.23;9.45;;;-2.80;99.90;;;;;;5111345;28;20195;-71
2023/02/11 03:27:05;;;;;;;15.15;9.15;;;-2.80;99.90;;;;;;5110975;28;20219;-71
2023/02/11 03:29:36;;;;;;;14.40;7.85;;;-2.80;99.90;;;;;;5111027;28;20199;-71
2023/02/11 03:32:14;;;;;;;19.45;10.05;;;-2.80;99.90;;;;;;5110421;28;20199;-70
2023/02/11 03:34:47;;;;;;;14.48;9.48;;;-2.70;99.90;;;;;;5111188;28;20211;-70
2023/02/11 03:37:19;;;;;;;14.68;8.40;;;-2.70;99.90;;;;;;5110839;28;20227;-70
2023/02/11 03:39:50;;;;;;;12.45;8.25;;;-2.80;99.90;;;;;;5111020;28;20214;-70
2023/02/11 03:42:19;;;;;;;13.55;7.10;;;-2.80;99.90;;;;;;5110592;28;20210;-70
2023/02/11 03:44:51;;;;;;;13.40;8.38;;;-2.80;99.90;;;;;;5110946;28;20256;-70
2023/02/11 03:47:23;;;;;;;16.10;9.80;;;-2.80;99.90;;;;;;5110801;28;20227;-70
2023/02/11 03:49:53;;;;;;;16.35;9.70;;;-2.70;99.90;;;;;;5110945;28;20248;-70
2023/02/11 03:52:22;;;;;;;12.10;7.47;;;-2.70;99.90;;;;;;5110270;28;20203;-71
2023/02/11 03:54:53;;;;;;;12.77;7.45;;;-2.70;99.90;;;;;;5110979;28;20204;-71
2023/02/11 03:57:20;;;;;;;12.73;8.13;;;-2.70;99.90;;;;;;5110723;28;20728;-71
2023/02/11 03:59:51;;;;;;;13.88;8.63;;;-2.70;99.90;;;;;;5110482;28;20206;-70
2023/02/11 04:02:18;;;;;;;9.13;6.63;;;-2.70;99.90;;;;;;5110231;28;20202;-71
2023/02/11 04:04:45;;;;;;;16.05;8.70;;;-2.80;99.90;;;;;;5110420;28;20195;-71
2023/02/11 04:07:13;;;;;;;16.70;8.35;;;-2.80;99.90;;;;;;5110332;28;20256;-70
2023/02/11 04:09:40;;;;;;;14.93;7.75;;;-2.80;99.90;;;;;;5110333;28;20196;-71
2023/02/11 04:12:07;;;;;;;16.42;8.65;;;-2.80;99.90;;;;;;5109978;28;20744;-70
2023/02/11 04:14:34;;;;;;;16.88;7.47;;;-2.80;99.90;;;;;;5110676;28;20199;-70
2023/02/11 04:17:00;;;;;;;13.77;7.28;;;-2.80;99.90;;;;;;5110138;28;20222;-70
2023/02/11 04:19:27;;;;;;;14.45;6.85;;;-2.70;99.90;;;;;;5110214;28;20203;-70
2023/02/11 04:21:54;;;;;;;13.63;7.30;;;-2.60;99.90;;;;;;5109736;28;20203;-70
2023/02/11 04:24:22;;;;;;;16.10;8.75;;;-2.60;99.90;;;;;;5110304;28;20207;-71
2023/02/11 04:26:48;;;;;;;10.93;7.28;;;-2.50;99.90;;;;;;5110453;28;20227;-70
2023/02/11 04:29:15;;;;;;;15.55;9.15;;;-2.50;99.90;;;;;;5110338;28;20210;-70
2023/02/11 04:31:42;;;;;;;14.27;7.93;;;-2.40;99.90;;;;;;5113841;28;20697;-71
2023/02/11 04:34:08;;;;;;;16.80;8.63;;;-2.40;99.90;;;;;;5114738;28;20203;-70
2023/02/11 04:36:35;;;;;;;18.17;8.75;;;-2.30;99.90;;;;;;5113982;28;20215;-70
2023/02/11 04:39:02;;;;;;;15.02;7.68;;;-2.20;99.90;;;;;;5113856;28;20214;-71
2023/02/11 04:41:30;;;;;;;10.88;6.97;;;-2.10;99.90;;;;;;5113586;28;20198;-70
2023/02/11 04:43:56;;;;;;;15.90;7.85;;;-2.10;99.90;;;;;;5113504;28;20213;-71
2023/02/11 04:46:23;;;;;;;17.10;8.40;;;-2.00;99.90;;;;;;5113824;28;20230;-71
2023/02/11 04:48:50;;;;;;;14.15;7.20;;;-2.10;99.90;;;;;;5113963;28;20195;-72
2023/02/11 04:51:16;;;;;;;14.75;8.73;;;-2.00;99.90;;;;;;5113601;28;20203;-71
2023/02/11 04:53:43;;;;;;;25.52;9.27;;;-2.00;99.90;;;;;;5113555;28;20483;-71
2023/02/11 04:56:10;;;;;;;16.00;7.80;;;-1.90;99.90;;;;;;5113332;28;20215;-70
2023/02/11 04:58:38;;;;;;;14.40;9.40;;;-1.80;99.90;;;;;;5114391;28;20207;-71
2023/02/11 05:01:08;;;;;;;11.77;7.55;;;-1.80;99.90;;;;;;5113402;27;20571;-70
2023/02/11 05:03:34;;;;;;;12.15;8.20;;;-1.70;99.90;;;;;;5113204;27;20214;-71
2023/02/11 05:06:01;;;;;;;13.70;8.25;;;-1.70;99.90;;;;;;5113548;28;20243;-71
2023/02/11 05:08:28;;;;;;;19.77;10.95;;;-1.60;99.90;;;;;;5113577;27;20203;-71
2023/02/11 05:10:54;;;;;;;17.20;8.57;;;-1.60;99.90;;;;;;5113492;28;20248;-70
2023/02/11 05:13:21;;;;;;;15.20;8.75;;;-1.50;99.90;;;;;;5112876;28;20195;-70
2023/02/11 05:15:49;;;;;;;12.20;7.75;;;-1.50;99.90;;;;;;5114116;28;20202;-70
2023/02/11 05:18:16;;;;;;;13.65;7.93;;;-1.50;99.90;;;;;;5112999;27;20199;-70
2023/02/11 05:20:43;;;;;;;17.23;11.05;;;-1.50;99.90;;;;;;5112919;28;20418;-71
2023/02/11 05:23:10;;;;;;;14.05;8.57;;;-1.40;99.90;;;;;;5112599;27;20712;-70
2023/02/11 05:25:37;;;;;;;21.23;9.20;;;-1.40;99.90;;;;;;5113263;27;20300;-71
2023/02/11 05:28:04;;;;;;;16.17;9.57;;;-1.30;99.90;;;;;;5112956;28;20694;-70
2023/02/11 05:30:31;;;;;;;18.50;10.27;;;-1.30;99.90;;;;;;5112981;28;20199;-71
2023/02/11 05:32:59;;;;;;;14.65;8.88;;;-1.20;99.90;;;;;;5112519;27;20684;-70
2023/02/11 05:35:26;;;;;;;15.45;8.35;;;-1.20;99.90;;;;;;5112843;28;20550;-70
2023/02/11 05:37:53;;;;;;;13.68;9.18;;;-1.10;99.90;;;;;;5112792;28;20566;-70
2023/02/11 05:40:19;;;;;;;14.45;8.65;;;-1.10;99.90;;;;;;5112448;28;20673;-70
2023/02/11 05:42:46;;;;;;;13.48;7.65;;;-1.00;99.90;;;;;;5112427;28;20214;-71
2023/02/11 05:45:13;;;;;;;13.80;9.30;;;-0.90;99.90;;;;;;5112705;27;20235;-70
2023/02/11 05:47:40;;;;;;;13.05;9.10;;;-0.90;99.90;;;;;;5112235;28;20699;-70
2023/02/11 05:50:08;;;;;;;12.95;7.78;;;-0.90;99.90;;;;;;5112173;28;20199;-70
2023/02/11 05:52:35;;;;;;;12.40;8.30;;;-0.80;99.90;;;;;;5111825;28;20195;-70
2023/02/11 05:55:01;;;;;;;15.68;9.13;;;-0.80;99.90;;;;;;5112307;28;20199;-70
2023/02/11 05:57:28;;;;;;;15.15;8.85;;;-0.70;99.90;;;;;;5112841;28;20211;-70
2023/02/11 05:59:55;;;;;;;12.82;7.30;;;-0.70;99.90;;;;;;5112417;28;20206;-70
2023/02/11 06:02:21;;;;;;;13.48;8.63;;;-0.60;99.90;;;;;;5112008;28;20207;-71
2023/02/11 06:04:48;;;;;;;10.05;7.05;;;-0.60;99.90;;;;;;5112551;28;20211;-71
2023/02/11 06:07:16;;;;;;;11.55;7.20;;;-0.60;99.90;;;;;;5112104;28;20693;-71
2023/02/11 06:09:43;;;;;;;16.83;8.55;;;-0.60;99.90;;;;;;5112495;28;20203;-70
2023/02/11 06:12:10;;;;;;;10.95;6.78;;;-0.60;99.90;;;;;;5111558;28;20191;-71
2023/02/11 06:14:36;;;;;;;12.95;8.27;;;-0.50;99.90;;;;;;5111379;28;21012;-71
2023/02/11 06:17:04;;;;;;;20.98;9.50;;;-0.50;99.90;;;;;;5111070;28;20214;-70
2023/02/11 06:19:30;;;;;;;15.10;9.82;;;-0.40;99.90;;;;;;5110859;28;20267;-71
2023/02/11 06:21:57;;;;;;;18.75;10.07;;;-0.40;99.90;;;;;;5110052;27;20670;-70
2023/02/11 06:24:25;;;;;;;15.38;9.48;;;-0.40;99.90;;;;;;5111077;28;20195;-70
2023/02/11 06:26:52;;;;;;;15.65;9.02;;;-0.40;99.90;;;;;;5110443;27;20283;-70
2023/02/11 06:29:19;;;;;;;15.88;8.85;;;-0.40;99.90;;;;;;5110670;28;20252;-71
2023/02/11 06:31:45;;;;;;;17.23;10.38;;;-0.40;99.90;;;;;;5110405;28;20198;-71
2023/02/11 06:34:12;;;;;;;11.43;8.27;;;-0.40;99.90;;;;;;5109882;28;20199;-70
2023/02/11 06:36:39;;;;;;;15.02;9.13;;;-0.40;99.90;;;;;;5110216;28;20713;-71
2023/02/11 06:39:06;;;;;;;19.52;10.00;;;-0.50;99.90;;;;;;5110399;28;20187;-71
2023/02/11 06:41:34;;;;;;;16.45;10.48;;;-0.50;99.90;;;;;;5110295;28;20805;-70
2023/02/11 06:44:01;;;;;;;12.50;7.15;;;-0.70;99.90;;;;;;5109840;28;20194;-70
2023/02/11 06:46:28;;;;;;;16.95;9.25;;;-0.70;99.90;;;;;;5110272;28;20234;-70
2023/02/11 06:48:54;;;;;;;10.52;7.07;;;-0.70;99.90;;;;;;5110251;28;20271;-71
2023/02/11 06:51:21;;;;;;;20.23;9.70;;;-0.70;99.90;;;;;;5110183;28;20256;-70
2023/02/11 06:53:48;;;;;;;17.48;8.82;;;-0.60;99.90;;;;;;5109491;28;20711;-70
2023/02/11 06:56:17;;;;;;;12.57;9.35;;;-0.60;99.90;;;;;;5110087;28;20221;-70
2023/02/11 06:58:46;;;;;;;16.10;8.85;;;-0.50;99.90;;;;;;5109986;28;20194;-70
2023/02/11 07:01:15;;;;;;;14.50;8.68;;;-0.50;99.90;;;;;;5109341;28;20191;-70
2023/02/11 07:03:44;;;;;;;15.57;8.48;;;-0.40;99.90;;;;;;5109645;28;20247;-70
2023/02/11 07:06:13;;;;;;;13.75;8.13;;;-0.40;99.90;;;;;;5109781;28;20586;-72
2023/02/11 07:08:41;;;;;;;14.45;7.68;;;-0.30;99.90;;;;;;5109937;28;20214;-70
2023/02/11 07:11:10;;;;;;;14.13;9.70;;;-0.20;99.90;;;;;;5112039;28;20195;-71
2023/02/11 07:13:37;;;;;;;14.98;8.57;;;-0.20;99.90;;;;;;5109758;28;20278;-71
2023/02/11 07:16:06;;;;;;;14.07;7.18;;;-0.20;99.90;;;;;;5109950;28;20591;-71
2023/02/11 07:18:32;;;;;;;14.57;9.15;;;-0.20;99.90;;;;;;5109872;28;20217;-71
2023/02/11 07:20:59;;;;;;;12.27;8.35;;;-0.10;99.90;;;;;;5109523;28;20597;-70
2023/02/11 07:23:26;;;;;;;13.90;8.23;;;-0.10;99.90;;;;;;5109638;28;20211;-71
2023/02/11 07:25:52;;;;;;;16.45;9.00;;;0.00;99.90;;;;;;5109587;28;20215;-71
2023/02/11 07:28:19;;;;;;;12.20;8.70;;;0.00;99.90;;;;;;5109712;28;20241;-71
2023/02/11 07:30:46;;;;;;;12.45;6.90;;;0.10;99.90;;;;;;5109746;28;20191;-70
2023/02/11 07:33:14;;;;;;;15.25;8.90;;;0.20;99.90;;;;;;5109444;28;20191;-71
2023/02/11 07:35:40;;;;;;;13.48;8.55;;;0.20;99.90;;;;;;5109641;28;20273;-71
2023/02/11 07:38:07;;;;;;;12.68;8.98;;;0.20;99.90;;;;;;5110391;28;20458;-72
2023/02/11 07:40:34;;;;;;;11.88;8.30;;;0.30;99.90;;;;;;5110936;28;20203;-72
2023/02/11 07:43:00;;;;;;;11.20;7.70;;;0.30;99.90;;;;;;5110418;28;20268;-71
2023/02/11 07:45:27;;;;;;;15.93;7.57;;;0.50;99.90;;;;;;5110907;28;20670;-72
2023/02/11 07:47:54;;;;;;;10.48;7.03;;;0.60;99.90;;;;;;5110479;28;20223;-72
2023/02/11 07:50:22;;;;;;;12.55;7.88;;;0.90;99.90;;;;;;5110703;28;20554;-73
2023/02/11 07:52:48;;;;;;;12.80;8.07;;;1.10;99.90;;;;;;5110295;28;20206;-72
2023/02/11 07:55:15;;;;;;;12.80;7.65;;;1.50;99.90;;;;;;5110736;28;20621;-73
2023/02/11 07:57:42;;;;;;;17.00;9.45;;;1.70;99.90;;;;;;5110896;28;20219;-72
2023/02/11 08:00:10;;;;;;;16.25;7.70;;;2.10;99.90;;;;;;5110611;28;20248;-72
2023/02/11 08:02:36;;;;;;;12.10;7.60;;;2.60;99.90;;;;;;5110189;28;20252;-72
2023/02/11 08:05:03;;;;;;;15.73;7.45;;;3.00;99.90;;;;;;5111494;28;20210;-72
2023/02/11 08:07:31;;;;;;;12.75;7.32;;;3.20;99.90;;;;;;5114908;28;20229;-72
2023/02/11 08:09:58;;;;;;;13.32;8.52;;;3.20;99.90;;;;;;5114705;28;20276;-72
2023/02/11 08:12:25;;;;;;;12.30;7.32;;;3.10;99.90;;;;;;5114217;27;20203;-72
2023/02/11 08:14:51;;;;;;;11.88;6.90;;;2.80;99.90;;;;;;5114297;28;20256;-72
2023/02/11 08:17:18;;;;;;;11.80;7.93;;;2.70;99.90;;;;;;5114589;28;20276;-72
2023/02/11 08:19:45;;;;;;;11.70;7.20;;;2.50;99.90;;;;;;5114708;28;20673;-73
2023/02/11 08:22:11;;;;;;;12.93;7.50;;;2.40;99.90;;;;;;5113798;28;20234;-72
2023/02/11 08:24:39;;;;;;;10.25;7.40;;;2.40;99.90;;;;;;5114639;27;20207;-72
2023/02/11 08:27:06;;;;;;;10.57;6.90;;;2.50;99.90;;;;;;5114357;28;20267;-73
2023/02/11 08:29:33;;;;;;;11.73;7.45;;;2.60;99.90;;;;;;5114391;28;20714;-72
2023/02/11 08:31:59;;;;;;;11.02;7.18;;;2.70;99.90;;;;;;5114085;28;20696;-72
2023/02/11 08:34:26;;;;;;;7.65;6.55;;;3.10;99.90;;;;;;5114065;28;20195;-72
2023/02/11 08:36:53;;;;;;;11.25;7.22;;;3.60;99.90;;;;;;5114054;28;20225;-71
2023/02/11 08:39:22;;;;;;;10.60;7.28;;;4.60;99.90;;;;;;5109917;27;20559;-74
2023/02/11 08:41:52;;;;;;;12.38;7.03;;;5.50;99.90;;;;;;5113956;28;20234;-74
2023/02/11 08:44:20;;;;;;;10.60;7.35;;;6.20;99.90;;;;;;5113189;28;20207;-74
2023/02/11 08:46:48;;;;;;;13.27;7.85;;;6.70;99.90;;;;;;5113695;28;20724;-72
2023/02/11 08:49:14;;;;;;;9.77;6.72;;;6.90;99.90;;;;;;5113664;28;20223;-72
2023/02/11 08:51:41;;;;;;;10.38;6.80;;;6.90;99.90;;;;;;5113726;28;20206;-71
2023/02/11 08:54:08;;;;;;;9.38;6.35;;;7.10;99.90;;;;;;5113308;28;20206;-75
2023/02/11 08:56:36;;;;;;;12.48;8.00;;;7.60;99.90;;;;;;5113379;28;20812;-74
2023/02/11 08:59:04;;;;;;;11.70;6.53;;;9.00;99.90;;;;;;5113431;28;20206;-75
2023/02/11 09:01:33;;;;;;;10.68;7.90;;;10.80;97.40;;;;;;5113489;28;20228;-72
2023/02/11 09:04:00;;;;;;;8.63;6.72;;;12.00;94.20;;;;;;5113089;28;20200;-73
2023/02/11 09:06:28;;;;;;;9.00;6.80;;;12.70;92.30;;;;;;5112732;28;20249;-72
2023/02/11 09:08:56;;;;;;;9.45;7.13;;;12.80;91.50;;;;;;5113006;27;20250;-72
2023/02/11 09:11:28;;;;;;;11.35;7.13;;;13.40;91.20;;;;;;5113231;27;20203;-71
2023/02/11 09:13:54;;;;;;;8.90;6.77;;;14.40;90.00;;;;;;5112624;27;20199;-70
2023/02/11 09:16:25;;;;;;;8.53;6.23;;;15.60;86.40;;;;;;5112180;28;20481;-70
2023/02/11 09:18:53;;;;;;;9.80;6.70;;;15.60;84.90;;;;;;5113324;28;20998;-75
2023/02/11 09:21:20;;;;;;;10.37;7.53;;;15.80;85.70;;;;;;5112869;27;20464;-74
2023/02/11 09:23:47;;;;;;;12.57;7.70;;;16.90;83.40;;;;;;5112708;28;20461;-75
2023/02/11 09:26:16;;;;;;;8.87;6.47;;;17.20;80.80;;;;;;5112374;28;20481;-70
2023/02/11 09:28:43;;;;;;;8.77;6.53;;;17.30;78.80;;;;;;5112784;27;20942;-71
2023/02/11 09:31:12;;;;;;;7.30;6.33;;;17.60;78.90;;;;;;5112641;28;20461;-71
2023/02/11 09:33:46;;;;;;;10.00;6.40;;;17.50;78.00;;;;;;5112360;28;20828;-69
2023/02/11 09:36:14;;;;;;;9.03;6.83;;;17.40;77.00;;;;;;5112618;28;20490;-70
2023/02/11 09:38:41;;;;;;;8.27;6.53;;;16.50;77.40;;;;;;5112638;28;20580;-73
2023/02/11 09:41:25;;;;;;;8.70;5.93;;;15.80;77.80;;;;;;5112244;28;20456;-73
2023/02/11 09:43:54;;;;;;;8.70;7.00;;;14.70;80.30;;;;;;5112209;27;20453;-69
2023/02/11 09:46:22;;;;;;;9.70;6.90;;;14.60;81.00;;;;;;5111604;28;20485;-70
2023/02/11 09:48:54;;;;;;;12.57;7.60;;;15.00;80.70;;;;;;5112333;27;20491;-70
2023/02/11 09:51:24;;;;;;;9.73;7.77;;;15.80;80.30;;;;;;5112310;27;20452;-70
2023/02/11 09:53:56;;;;;;;10.97;7.97;;;16.30;79.50;;;;;;5112258;28;20457;-71
2023/02/11 09:56:24;;;;;;;11.00;7.50;;;17.50;77.30;;;;;;5112175;28;20537;-73
2023/02/11 09:58:50;;;;;;;11.77;7.90;;;17.90;75.60;;;;;;5112403;28;20449;-73
2023/02/11 10:01:36;;;;;;;8.97;7.07;;;17.80;76.80;;;;;;5112011;28;20478;-73
2023/02/11 10:04:13;;;;;;;7.57;6.03;;;18.20;74.70;;;;;;5111217;28;20519;-73
2023/02/11 10:06:45;;;;;;;8.57;6.80;;;16.90;75.20;;;;;;5112294;28;20480;-75
2023/02/11 10:09:25;;;;;;;7.27;6.03;;;16.30;77.50;;;;;;5111531;28;20480;-73
2023/02/11 10:12:03;;;;;;;6.90;5.53;;;16.30;77.40;;;;;;5112268;28;20452;-74
2023/02/11 10:14:52;;;;;;;6.53;5.67;;;17.10;75.80;;;;;;5111668;28;20460;-75
2023/02/11 10:17:27;;;;;;;7.60;5.93;;;16.40;76.30;;;;;;5111671;28;20892;-75
2023/02/11 10:20:08;;;;;;;7.33;6.00;;;15.70;77.90;;;;;;5106711;28;20456;-74
2023/02/11 10:22:41;;;;;;;7.00;6.30;;;14.50;78.90;;;;;;5104408;28;20518;-75
2023/02/11 10:25:22;;;;;;;9.60;6.50;;;14.30;79.80;;;;;;5109284;28;20463;-75
2023/02/11 10:27:50;;;;;;;7.90;6.70;;;14.70;79.20;;;;;;5109973;28;20515;-73
2023/02/11 10:30:26;;;;;;;7.00;5.87;;;15.20;78.80;;;;;;5110633;28;21056;-72
2023/02/11 10:32:59;;;;;;;9.67;7.10;;;15.80;79.40;;;;;;5108327;28;20456;-75
2023/02/11 10:35:27;;;;;;;7.20;6.10;;;16.70;77.60;;;;;;5110511;28;20453;-72
2023/02/11 10:37:55;;;;;;;7.90;5.60;;;17.70;75.70;;;;;;5107908;28;20530;-72
2023/02/11 10:40:24;;;;;;;11.23;6.57;;;18.20;74.50;;;;;;5110240;28;20543;-72
2023/02/11 10:42:53;;;;;;;7.27;6.50;;;19.20;73.80;;;;;;5110781;28;20465;-72
2023/02/11 10:45:27;;;;;;;8.30;6.10;;;20.30;73.40;;;;;;5110016;28;20882;-72
2023/02/11 10:47:54;;;;;;;9.50;6.37;;;21.60;71.60;;;;;;5110359;28;20484;-72
2023/02/11 10:50:27;;;;;;;7.40;6.07;;;22.40;70.70;;;;;;5110615;28;20807;-70
2023/02/11 10:53:13;;;;;;;7.77;6.47;;;22.90;69.80;;;;;;5109984;28;20466;-72
2023/02/11 10:55:51;;;;;;;7.30;6.13;;;24.10;67.90;;;;;;5111084;28;20449;-72
2023/02/11 10:58:25;;;;;;;7.07;5.90;;;24.20;67.00;;;;;;5110443;28;20539;-72
2023/02/11 11:00:54;;;;;;;6.50;5.90;;;24.70;65.80;;;;;;5110651;28;20460;-72
2023/02/11 11:03:27;;;;;;;6.93;5.73;;;24.70;65.60;;;;;;5110105;28;20464;-73
2023/02/11 11:05:57;;;;;;;6.83;6.00;;;24.20;67.30;;;;;;5107243;28;20560;-71
2023/02/11 11:08:38;;;;;;;6.70;5.90;;;24.50;66.00;;;;;;5110381;28;20481;-70
2023/02/11 11:11:07;;;;;;;9.60;6.70;;;24.30;64.50;;;;;;5089931;28;20460;-71
2023/02/11 11:13:36;;;;;;;7.93;6.80;;;24.10;64.60;;;;;;5091140;28;20465;-70
2023/02/11 11:16:24;;;;;;;8.63;7.30;;;23.60;66.50;;;;;;5109416;28;20479;-72
2023/02/11 11:18:53;;;;;;;9.47;6.47;;;23.60;65.80;;;;;;5107213;28;20963;-71
2023/02/11 11:21:23;;;;;;;9.43;7.10;;;23.20;66.50;;;;;;5108142;28;20468;-71
2023/02/11 11:23:58;;;;;;;10.53;6.10;;;22.10;67.80;;;;;;5109966;28;21165;-72
2023/02/11 11:26:38;;;;;;;8.83;7.07;;;21.80;68.30;;;;;;5110863;28;20990;-72
2023/02/11 11:29:11;;;;;;;8.30;6.53;;;22.40;67.40;;;;;;5109361;28;20473;-72
2023/02/11 11:31:50;;;;;;;9.20;6.37;;;22.50;67.70;;;;;;5110783;28;20463;-73
2023/02/11 11:34:23;;;;;;;7.97;6.00;;;23.20;66.30;;;;;;5109950;28;20480;-71
2023/02/11 11:36:50;;;;;;;7.43;6.00;;;23.50;66.00;;;;;;5108295;28;20476;-72
2023/02/11 11:39:24;;;;;;;8.57;7.40;;;23.30;66.50;;;;;;5110825;28;20460;-72
2023/02/11 11:41:53;;;;;;;7.80;7.00;;;24.10;65.70;;;;;;5114108;28;20490;-72
2023/02/11 11:44:26;;;;;;;9.97;6.90;;;24.40;65.00;;;;;;5108501;28;20460;-72
2023/02/11 11:47:11;;;;;;;9.30;6.10;;;24.40;64.20;;;;;;5114027;28;21055;-72
2023/02/11 11:49:43;;;;;;;7.60;5.93;;;23.70;65.10;;;;;;5114022;28;21225;-72
2023/02/11 11:52:19;;;;;;;6.67;5.97;;;24.00;64.20;;;;;;5112795;28;20468;-71
2023/02/11 11:54:55;;;;;;;7.33;5.93;;;24.00;63.90;;;;;;5113811;28;20452;-72
2023/02/11 11:57:27;;;;;;;6.90;6.20;;;23.90;64.30;;;;;;5114104;28;20545;-73
2023/02/11 11:59:54;;;;;;;6.73;6.10;;;24.30;63.90;;;;;;5113100;28;20457;-72
2023/02/11 12:02:44;;;;;;;8.40;5.97;;;24.20;63.50;;;;;;5110507;28;20464;-72
2023/02/11 12:05:17;;;;;;;7.30;5.73;;;24.00;63.50;;;;;;5105567;28;20947;-72
2023/02/11 12:07:57;;;;;;;9.07;6.10;;;24.50;64.20;;;;;;5114433;28;20476;-72
2023/02/11 12:10:55;;;;;;;5.73;4.93;;;25.40;62.50;;;;;;5114323;28;20480;-72
2023/02/11 12:13:39;;;;;;;4.87;4.37;;;24.60;63.30;;;;;;5107667;28;20496;-72
2023/02/11 12:16:14;;;;;;;5.80;4.50;;;23.60;63.70;;;;;;5113994;28;20980;-72
2023/02/11 12:18:56;;;;;;;6.27;4.67;;;22.10;64.50;;;;;;5112278;28;20455;-72
2023/02/11 12:21:32;;;;;;;5.07;4.20;;;20.30;66.90;;;;;;5104640;28;20456;-72
2023/02/11 12:24:14;;;;;;;5.47;4.40;;;19.60;67.80;;;;;;5113218;28;20501;-72
2023/02/11 12:26:47;;;;;;;4.70;4.20;;;19.60;67.90;;;;;;5113824;28;20514;-71
2023/02/11 12:29:24;;;;;;;5.20;3.90;;;19.70;67.40;;;;;;5112300;28;20616;-72
2023/02/11 12:32:08;;;;;;;4.87;4.40;;;20.20;67.10;;;;;;5113527;28;20464;-72
2023/02/11 12:34:50;;;;;;;7.20;4.70;;;19.80;67.30;;;;;;5113443;28;20460;-72
2023/02/11 12:37:31;;;;;;;5.50;4.30;;;20.30;67.60;;;;;;5113116;28;20541;-72
2023/02/11 12:40:08;;;;;;;4.53;3.83;;;21.70;65.60;;;;;;5113853;28;20457;-72
2023/02/11 12:46:16;;;;;;;6.33;3.80;;;22.90;63.70;;;;;;5111476;28;20859;-72
2023/02/11 12:49:01;;;;;;;7.00;4.00;;;23.00;63.60;;;;;;5113444;28;20908;-72
2023/02/11 12:51:41;;;;;;;6.53;5.83;;;23.00;63.50;;;;;;5109004;28;21004;-72
2023/02/11 12:54:20;;;;;;;5.90;4.57;;;22.10;65.00;;;;;;5113093;28;20970;-72
2023/02/11 12:56:52;;;;;;;7.70;5.60;;;20.80;67.30;;;;;;5100885;27;20479;-72
2023/02/11 12:59:31;;;;;;;5.40;4.80;;;19.70;68.60;;;;;;5094768;28;20461;-72
2023/02/11 13:02:00;;;;;;;7.23;5.73;;;19.00;70.70;;;;;;5113587;28;20452;-72
2023/02/11 13:04:33;;;;;;;6.33;5.73;;;18.20;72.40;;;;;;5112897;28;20457;-72
2023/02/11 13:07:04;;;;;;;6.43;5.73;;;17.40;73.20;;;;;;5112272;28;20484;-72